sensor_id;sensor_type;location;lat;lon;timestamp;pressure;altitude;pressure_sealevel;temperature;humidity
6218;BME280;3142;48.206;11.550;2022-12-18T00:01:20;96834.59;;;-3.00;80.23
6218;BME280;3142;48.206;11.550;2022-12-18T00:03:47;96839.84;;;-3.17;80.81
6218;BME280;3142;48.206;11.550;2022-12-18T00:06:14;96835.63;;;-3.18;80.58
6218;BME280;3142;48.206;11.550;2022-12-18T00:08:42;96830.09;;;-3.41;80.42
6218;BME280;3142;48.206;11.550;2022-12-18T00:11:11;96836.44;;;-3.48;80.52
6218;BME280;3142;48.206;11.550;2022-12-18T00:13:38;96836.63;;;-3.51;81.16
6218;BME280;3142;48.206;11.550;2022-12-18T00:16:07;96839.38;;;-3.54;80.91
6218;BME280;3142;48.206;11.550;2022-12-18T00:18:33;96836.38;;;-3.62;81.16
6218;BME280;3142;48.206;11.550;2022-12-18T00:21:01;96835.97;;;-3.54;80.98
6218;BME280;3142;48.206;11.550;2022-12-18T00:23:28;96837.38;;;-3.65;80.84
6218;BME280;3142;48.206;11.550;2022-12-18T00:25:58;96837.72;;;-3.71;81.38
6218;BME280;3142;48.206;11.550;2022-12-18T00:28:24;96835.25;;;-3.72;81.76
6218;BME280;3142;48.206;11.550;2022-12-18T00:30:59;96836.72;;;-3.52;81.41
6218;BME280;3142;48.206;11.550;2022-12-18T00:33:26;96849.56;;;-3.38;81.07
6218;BME280;3142;48.206;11.550;2022-12-18T00:35:52;96850.03;;;-3.32;80.46
6218;BME280;3142;48.206;11.550;2022-12-18T00:38:19;96865.81;;;-3.39;80.47
6218;BME280;3142;48.206;11.550;2022-12-18T00:40:45;96866.41;;;-3.50;80.56
6218;BME280;3142;48.206;11.550;2022-12-18T00:43:13;96862.53;;;-3.57;80.41
6218;BME280;3142;48.206;11.550;2022-12-18T00:45:38;96863.34;;;-3.57;82.08
6218;BME280;3142;48.206;11.550;2022-12-18T00:48:06;96874.53;;;-3.43;81.39
6218;BME280;3142;48.206;11.550;2022-12-18T00:50:32;96878.59;;;-3.39;80.66
6218;BME280;3142;48.206;11.550;2022-12-18T00:52:59;96883.41;;;-3.49;80.57
6218;BME280;3142;48.206;11.550;2022-12-18T00:55:25;96878.47;;;-3.68;80.83
6218;BME280;3142;48.206;11.550;2022-12-18T00:57:52;96875.09;;;-3.68;81.32
6218;BME280;3142;48.206;11.550;2022-12-18T01:00:20;96873.09;;;-3.63;82.22
6218;BME280;3142;48.206;11.550;2022-12-18T01:02:47;96879.59;;;-3.58;81.36
6218;BME280;3142;48.206;11.550;2022-12-18T01:05:14;96870.03;;;-3.54;80.91
6218;BME280;3142;48.206;11.550;2022-12-18T01:07:40;96876.03;;;-3.39;82.40
6218;BME280;3142;48.206;11.550;2022-12-18T01:10:09;96868.38;;;-3.09;81.16
6218;BME280;3142;48.206;11.550;2022-12-18T01:12:36;96873.78;;;-3.14;80.44
6218;BME280;3142;48.206;11.550;2022-12-18T01:15:03;96875.69;;;-3.33;79.82
6218;BME280;3142;48.206;11.550;2022-12-18T01:17:31;96886.84;;;-3.34;80.51
6218;BME280;3142;48.206;11.550;2022-12-18T01:19:58;96892.03;;;-3.36;80.67
6218;BME280;3142;48.206;11.550;2022-12-18T01:22:24;96901.09;;;-3.30;80.94
6218;BME280;3142;48.206;11.550;2022-12-18T01:24:51;96902.44;;;-3.39;80.86
6218;BME280;3142;48.206;11.550;2022-12-18T01:27:17;96910.94;;;-3.38;80.71
6218;BME280;3142;48.206;11.550;2022-12-18T01:29:44;96909.53;;;-3.28;80.54
6218;BME280;3142;48.206;11.550;2022-12-18T01:32:10;96918.50;;;-3.21;80.01
6218;BME280;3142;48.206;11.550;2022-12-18T01:34:38;96924.34;;;-3.19;80.22
6218;BME280;3142;48.206;11.550;2022-12-18T01:37:05;96929.38;;;-3.17;79.65
6218;BME280;3142;48.206;11.550;2022-12-18T01:39:32;96934.50;;;-3.17;80.74
6218;BME280;3142;48.206;11.550;2022-12-18T01:41:58;96926.63;;;-3.29;80.44
6218;BME280;3142;48.206;11.550;2022-12-18T01:44:51;96933.53;;;-3.31;80.92
6218;BME280;3142;48.206;11.550;2022-12-18T01:47:22;96920.09;;;-3.34;81.31
6218;BME280;3142;48.206;11.550;2022-12-18T01:49:52;96907.81;;;-3.28;81.23
6218;BME280;3142;48.206;11.550;2022-12-18T01:52:20;96924.53;;;-3.22;80.71
6218;BME280;3142;48.206;11.550;2022-12-18T01:54:48;96934.19;;;-3.27;81.63
6218;BME280;3142;48.206;11.550;2022-12-18T01:57:16;96932.56;;;-3.28;80.65
6218;BME280;3142;48.206;11.550;2022-12-18T01:59:45;96929.75;;;-3.23;81.26
6218;BME280;3142;48.206;11.550;2022-12-18T02:02:14;96926.69;;;-3.30;80.86
6218;BME280;3142;48.206;11.550;2022-12-18T02:04:41;96919.34;;;-3.36;80.90
6218;BME280;3142;48.206;11.550;2022-12-18T02:07:16;96918.94;;;-3.44;81.90
6218;BME280;3142;48.206;11.550;2022-12-18T02:09:46;96915.31;;;-3.40;81.22
6218;BME280;3142;48.206;11.550;2022-12-18T02:12:18;96913.50;;;-3.38;81.83
6218;BME280;3142;48.206;11.550;2022-12-18T02:14:51;96906.50;;;-3.50;81.75
6218;BME280;3142;48.206;11.550;2022-12-18T02:17:21;96913.44;;;-3.52;82.54
6218;BME280;3142;48.206;11.550;2022-12-18T02:20:00;96910.63;;;-3.64;82.78
6218;BME280;3142;48.206;11.550;2022-12-18T02:22:39;96909.53;;;-3.60;82.66
6218;BME280;3142;48.206;11.550;2022-12-18T02:25:19;96900.88;;;-3.57;82.28
6218;BME280;3142;48.206;11.550;2022-12-18T02:27:52;96899.81;;;-3.53;81.90
6218;BME280;3142;48.206;11.550;2022-12-18T02:30:20;96900.56;;;-3.51;82.95
6218;BME280;3142;48.206;11.550;2022-12-18T02:32:50;96911.59;;;-3.35;82.14
6218;BME280;3142;48.206;11.550;2022-12-18T02:35:21;96902.34;;;-3.37;81.42
6218;BME280;3142;48.206;11.550;2022-12-18T02:37:50;96902.34;;;-3.37;82.45
6218;BME280;3142;48.206;11.550;2022-12-18T02:40:22;96897.50;;;-3.42;81.68
6218;BME280;3142;48.206;11.550;2022-12-18T02:42:51;96902.47;;;-3.54;81.73
6218;BME280;3142;48.206;11.550;2022-12-18T02:45:18;96904.34;;;-3.58;82.57
6218;BME280;3142;48.206;11.550;2022-12-18T02:47:48;96902.78;;;-3.61;82.07
6218;BME280;3142;48.206;11.550;2022-12-18T02:50:19;96909.22;;;-3.69;82.33
6218;BME280;3142;48.206;11.550;2022-12-18T02:52:56;96908.22;;;-3.67;83.16
6218;BME280;3142;48.206;11.550;2022-12-18T02:55:39;96916.38;;;-3.60;82.75
6218;BME280;3142;48.206;11.550;2022-12-18T02:58:14;96914.31;;;-3.38;82.64
6218;BME280;3142;48.206;11.550;2022-12-18T03:00:45;96910.69;;;-3.34;82.17
6218;BME280;3142;48.206;11.550;2022-12-18T03:03:16;96921.31;;;-3.25;82.46
6218;BME280;3142;48.206;11.550;2022-12-18T03:05:51;96912.84;;;-3.42;81.00
6218;BME280;3142;48.206;11.550;2022-12-18T03:08:22;96901.63;;;-3.39;82.87
6218;BME280;3142;48.206;11.550;2022-12-18T03:10:51;96899.88;;;-3.39;81.93
6218;BME280;3142;48.206;11.550;2022-12-18T03:13:25;96902.63;;;-3.42;81.37
6218;BME280;3142;48.206;11.550;2022-12-18T03:15:55;96903.09;;;-3.35;82.30
6218;BME280;3142;48.206;11.550;2022-12-18T03:18:26;96898.06;;;-3.37;81.05
6218;BME280;3142;48.206;11.550;2022-12-18T03:20:58;96894.50;;;-3.34;81.40
6218;BME280;3142;48.206;11.550;2022-12-18T03:23:29;96913.31;;;-3.35;81.10
6218;BME280;3142;48.206;11.550;2022-12-18T03:26:02;96897.72;;;-3.31;81.54
6218;BME280;3142;48.206;11.550;2022-12-18T03:28:35;96904.81;;;-3.36;81.94
6218;BME280;3142;48.206;11.550;2022-12-18T03:31:04;96899.53;;;-3.33;81.93
6218;BME280;3142;48.206;11.550;2022-12-18T03:33:38;96898.72;;;-3.33;81.43
6218;BME280;3142;48.206;11.550;2022-12-18T03:36:06;96904.50;;;-3.45;81.27
6218;BME280;3142;48.206;11.550;2022-12-18T03:38:33;96910.78;;;-3.51;80.63
6218;BME280;3142;48.206;11.550;2022-12-18T03:41:04;96918.78;;;-3.57;82.01
6218;BME280;3142;48.206;11.550;2022-12-18T03:43:42;96913.84;;;-3.76;82.04
6218;BME280;3142;48.206;11.550;2022-12-18T03:46:15;96918.84;;;-3.74;83.89
6218;BME280;3142;48.206;11.550;2022-12-18T03:48:46;96917.28;;;-3.61;83.24
6218;BME280;3142;48.206;11.550;2022-12-18T03:51:19;96903.94;;;-3.66;82.97
6218;BME280;3142;48.206;11.550;2022-12-18T03:53:54;96906.59;;;-3.68;82.05
6218;BME280;3142;48.206;11.550;2022-12-18T03:56:22;96910.72;;;-3.65;83.14
6218;BME280;3142;48.206;11.550;2022-12-18T03:58:53;96912.53;;;-3.67;82.71
6218;BME280;3142;48.206;11.550;2022-12-18T04:01:28;96907.72;;;-3.58;83.05
6218;BME280;3142;48.206;11.550;2022-12-18T04:03:57;96913.16;;;-3.48;82.66
6218;BME280;3142;48.206;11.550;2022-12-18T04:06:26;96918.63;;;-3.38;82.82
6218;BME280;3142;48.206;11.550;2022-12-18T04:08:53;96917.88;;;-3.40;82.68
6218;BME280;3142;48.206;11.550;2022-12-18T04:11:19;96915.41;;;-3.42;82.35
6218;BME280;3142;48.206;11.550;2022-12-18T04:13:46;96908.47;;;-3.40;82.09
6218;BME280;3142;48.206;11.550;2022-12-18T04:16:14;96910.34;;;-3.43;82.69
6218;BME280;3142;48.206;11.550;2022-12-18T04:18:40;96903.50;;;-3.43;82.23
6218;BME280;3142;48.206;11.550;2022-12-18T04:21:07;96904.41;;;-3.44;82.29
6218;BME280;3142;48.206;11.550;2022-12-18T04:23:33;96909.28;;;-3.39;83.34
6218;BME280;3142;48.206;11.550;2022-12-18T04:26:00;96909.22;;;-3.38;82.42
6218;BME280;3142;48.206;11.550;2022-12-18T04:28:27;96914.06;;;-3.33;82.11
6218;BME280;3142;48.206;11.550;2022-12-18T04:30:53;96926.53;;;-3.43;83.31
6218;BME280;3142;48.206;11.550;2022-12-18T04:33:21;96921.09;;;-3.37;82.78
6218;BME280;3142;48.206;11.550;2022-12-18T04:35:48;96924.63;;;-3.39;83.09
6218;BME280;3142;48.206;11.550;2022-12-18T04:38:14;96923.13;;;-3.43;83.27
6218;BME280;3142;48.206;11.550;2022-12-18T04:40:41;96918.09;;;-3.45;82.86
6218;BME280;3142;48.206;11.550;2022-12-18T04:43:07;96917.63;;;-3.51;83.45
6218;BME280;3142;48.206;11.550;2022-12-18T04:45:34;96920.75;;;-3.46;83.37
6218;BME280;3142;48.206;11.550;2022-12-18T04:48:01;96938.34;;;-3.56;83.03
6218;BME280;3142;48.206;11.550;2022-12-18T04:50:30;96943.78;;;-3.62;83.40
6218;BME280;3142;48.206;11.550;2022-12-18T04:52:57;96947.50;;;-3.68;83.92
6218;BME280;3142;48.206;11.550;2022-12-18T04:55:23;96951.78;;;-3.68;83.44
6218;BME280;3142;48.206;11.550;2022-12-18T04:57:50;96952.16;;;-3.76;84.15
6218;BME280;3142;48.206;11.550;2022-12-18T05:00:17;96948.88;;;-3.78;84.45
6218;BME280;3142;48.206;11.550;2022-12-18T05:02:43;96945.66;;;-3.81;83.58
6218;BME280;3142;48.206;11.550;2022-12-18T05:05:10;96951.09;;;-3.88;83.74
6218;BME280;3142;48.206;11.550;2022-12-18T05:07:38;96939.94;;;-3.87;84.60
6218;BME280;3142;48.206;11.550;2022-12-18T05:10:05;96950.03;;;-3.83;84.19
6218;BME280;3142;48.206;11.550;2022-12-18T05:12:32;96962.88;;;-3.85;84.35
6218;BME280;3142;48.206;11.550;2022-12-18T05:14:58;96972.63;;;-3.76;84.94
6218;BME280;3142;48.206;11.550;2022-12-18T05:17:25;96957.19;;;-3.74;84.25
6218;BME280;3142;48.206;11.550;2022-12-18T05:19:51;96938.22;;;-3.70;84.34
6218;BME280;3142;48.206;11.550;2022-12-18T05:22:18;96939.47;;;-3.62;83.88
6218;BME280;3142;48.206;11.550;2022-12-18T05:24:46;96937.44;;;-3.55;83.85
6218;BME280;3142;48.206;11.550;2022-12-18T05:27:12;96949.31;;;-3.54;83.51
6218;BME280;3142;48.206;11.550;2022-12-18T05:29:38;96959.69;;;-3.57;84.10
6218;BME280;3142;48.206;11.550;2022-12-18T05:32:05;96969.50;;;-3.49;83.76
6218;BME280;3142;48.206;11.550;2022-12-18T05:34:31;96975.06;;;-3.41;83.43
6218;BME280;3142;48.206;11.550;2022-12-18T05:36:58;96960.69;;;-3.28;84.32
6218;BME280;3142;48.206;11.550;2022-12-18T05:39:25;96963.56;;;-3.18;83.46
6218;BME280;3142;48.206;11.550;2022-12-18T05:41:52;96959.75;;;-2.95;83.35
6218;BME280;3142;48.206;11.550;2022-12-18T05:44:19;96956.53;;;-2.99;82.86
6218;BME280;3142;48.206;11.550;2022-12-18T05:46:45;96959.41;;;-3.05;83.55
6218;BME280;3142;48.206;11.550;2022-12-18T05:49:12;96956.97;;;-3.22;82.33
6218;BME280;3142;48.206;11.550;2022-12-18T05:51:38;96959.84;;;-3.44;82.19
6218;BME280;3142;48.206;11.550;2022-12-18T05:54:05;96969.50;;;-3.49;83.15
6218;BME280;3142;48.206;11.550;2022-12-18T05:56:31;96981.47;;;-3.50;82.40
6218;BME280;3142;48.206;11.550;2022-12-18T05:58:59;96981.72;;;-3.54;83.12
6218;BME280;3142;48.206;11.550;2022-12-18T06:01:26;96977.66;;;-3.59;83.28
6218;BME280;3142;48.206;11.550;2022-12-18T06:03:53;96977.44;;;-3.54;82.94
6218;BME280;3142;48.206;11.550;2022-12-18T06:06:21;96973.25;;;-3.55;82.52
6218;BME280;3142;48.206;11.550;2022-12-18T06:08:48;96974.97;;;-3.55;83.17
6218;BME280;3142;48.206;11.550;2022-12-18T06:11:17;96973.47;;;-3.60;83.68
6218;BME280;3142;48.206;11.550;2022-12-18T06:13:44;96983.53;;;-3.57;83.35
6218;BME280;3142;48.206;11.550;2022-12-18T06:16:13;96979.75;;;-3.49;83.72
6218;BME280;3142;48.206;11.550;2022-12-18T06:18:39;96980.00;;;-3.54;83.26
6218;BME280;3142;48.206;11.550;2022-12-18T06:21:05;96976.00;;;-3.60;83.01
6218;BME280;3142;48.206;11.550;2022-12-18T06:23:32;96979.91;;;-3.68;83.44
6218;BME280;3142;48.206;11.550;2022-12-18T06:25:58;96965.13;;;-3.63;83.60
6218;BME280;3142;48.206;11.550;2022-12-18T06:28:29;96980.31;;;-3.60;82.83
6218;BME280;3142;48.206;11.550;2022-12-18T06:30:55;96987.59;;;-3.52;83.55
6218;BME280;3142;48.206;11.550;2022-12-18T06:33:26;96992.44;;;-3.48;84.22
6218;BME280;3142;48.206;11.550;2022-12-18T06:35:53;96994.69;;;-3.26;83.68
6218;BME280;3142;48.206;11.550;2022-12-18T06:38:19;96998.16;;;-3.27;82.69
6218;BME280;3142;48.206;11.550;2022-12-18T06:40:46;96997.38;;;-3.29;82.73
6218;BME280;3142;48.206;11.550;2022-12-18T06:43:13;97001.53;;;-3.42;82.59
6218;BME280;3142;48.206;11.550;2022-12-18T06:45:39;96998.31;;;-3.46;83.11
6218;BME280;3142;48.206;11.550;2022-12-18T06:48:06;97005.16;;;-3.46;83.25
6218;BME280;3142;48.206;11.550;2022-12-18T06:50:34;97006.53;;;-3.57;82.57
6218;BME280;3142;48.206;11.550;2022-12-18T06:53:00;97012.06;;;-3.48;83.79
6218;BME280;3142;48.206;11.550;2022-12-18T06:55:27;97015.53;;;-3.49;82.87
6218;BME280;3142;48.206;11.550;2022-12-18T06:57:53;97014.44;;;-3.61;82.45
6218;BME280;3142;48.206;11.550;2022-12-18T07:00:20;97025.75;;;-3.65;82.33
6218;BME280;3142;48.206;11.550;2022-12-18T07:02:46;97023.78;;;-3.60;83.31
6218;BME280;3142;48.206;11.550;2022-12-18T07:05:13;97035.25;;;-3.51;82.69
6218;BME280;3142;48.206;11.550;2022-12-18T07:07:41;97034.28;;;-3.49;82.88
6218;BME280;3142;48.206;11.550;2022-12-18T07:10:08;97033.63;;;-3.52;82.59
6218;BME280;3142;48.206;11.550;2022-12-18T07:12:34;97029.00;;;-3.46;82.48
6218;BME280;3142;48.206;11.550;2022-12-18T07:15:01;97036.44;;;-3.41;82.66
6218;BME280;3142;48.206;11.550;2022-12-18T07:17:28;97040.13;;;-3.47;81.97
6218;BME280;3142;48.206;11.550;2022-12-18T07:19:54;97045.91;;;-3.43;82.99
6218;BME280;3142;48.206;11.550;2022-12-18T07:22:21;97046.81;;;-3.44;82.45
6218;BME280;3142;48.206;11.550;2022-12-18T07:24:49;97046.72;;;-3.43;83.06
6218;BME280;3142;48.206;11.550;2022-12-18T07:27:15;97051.06;;;-3.28;83.06
6218;BME280;3142;48.206;11.550;2022-12-18T07:29:42;97051.06;;;-3.12;82.91
6218;BME280;3142;48.206;11.550;2022-12-18T07:32:08;97053.38;;;-3.23;82.84
6218;BME280;3142;48.206;11.550;2022-12-18T07:34:35;97039.00;;;-3.25;82.37
6218;BME280;3142;48.206;11.550;2022-12-18T07:37:01;97034.97;;;-3.14;81.94
6218;BME280;3142;48.206;11.550;2022-12-18T07:39:28;97034.28;;;-3.17;82.62
6218;BME280;3142;48.206;11.550;2022-12-18T07:41:56;97032.72;;;-3.04;82.37
6218;BME280;3142;48.206;11.550;2022-12-18T07:44:40;97040.22;;;-3.17;81.91
6218;BME280;3142;48.206;11.550;2022-12-18T07:47:06;97041.66;;;-3.11;82.96
6218;BME280;3142;48.206;11.550;2022-12-18T07:49:33;97038.50;;;-3.16;82.02
6218;BME280;3142;48.206;11.550;2022-12-18T07:51:59;97043.38;;;-3.12;81.80
6218;BME280;3142;48.206;11.550;2022-12-18T07:54:27;97047.41;;;-3.23;80.78
6218;BME280;3142;48.206;11.550;2022-12-18T07:56:53;97038.81;;;-3.38;81.81
6218;BME280;3142;48.206;11.550;2022-12-18T07:59:21;97044.41;;;-3.63;81.43
6218;BME280;3142;48.206;11.550;2022-12-18T08:01:47;97046.88;;;-3.62;81.52
6218;BME280;3142;48.206;11.550;2022-12-18T08:04:14;97055.25;;;-3.75;82.12
6218;BME280;3142;48.206;11.550;2022-12-18T08:06:40;97058.78;;;-3.78;82.31
6218;BME280;3142;48.206;11.550;2022-12-18T08:09:07;97065.31;;;-3.72;82.65
6218;BME280;3142;48.206;11.550;2022-12-18T08:11:34;97062.63;;;-3.69;82.51
6218;BME280;3142;48.206;11.550;2022-12-18T08:14:00;97073.19;;;-3.60;82.45
6218;BME280;3142;48.206;11.550;2022-12-18T08:16:28;97070.53;;;-3.58;82.14
6218;BME280;3142;48.206;11.550;2022-12-18T08:18:55;97074.91;;;-3.60;82.43
6218;BME280;3142;48.206;11.550;2022-12-18T08:21:24;97068.44;;;-3.50;82.52
6218;BME280;3142;48.206;11.550;2022-12-18T08:23:53;97077.81;;;-3.50;81.84
6218;BME280;3142;48.206;11.550;2022-12-18T08:26:20;97077.66;;;-3.47;81.69
6218;BME280;3142;48.206;11.550;2022-12-18T08:28:47;97065.50;;;-3.60;81.94
6218;BME280;3142;48.206;11.550;2022-12-18T08:31:13;97075.72;;;-3.60;82.48
6218;BME280;3142;48.206;11.550;2022-12-18T08:33:41;97068.31;;;-3.64;82.06
6218;BME280;3142;48.206;11.550;2022-12-18T08:36:09;97071.16;;;-3.70;81.88
6218;BME280;3142;48.206;11.550;2022-12-18T08:38:36;97070.75;;;-3.78;82.03
6218;BME280;3142;48.206;11.550;2022-12-18T08:41:04;97079.53;;;-3.84;82.38
6218;BME280;3142;48.206;11.550;2022-12-18T08:43:31;97076.16;;;-3.84;83.85
6218;BME280;3142;48.206;11.550;2022-12-18T08:46:15;97079.91;;;-3.74;83.16
6218;BME280;3142;48.206;11.550;2022-12-18T08:48:43;97083.81;;;-3.67;82.88
6218;BME280;3142;48.206;11.550;2022-12-18T08:51:10;97083.13;;;-3.71;82.35
6218;BME280;3142;48.206;11.550;2022-12-18T08:53:37;97081.22;;;-3.83;82.45
6218;BME280;3142;48.206;11.550;2022-12-18T08:56:04;97077.75;;;-3.82;82.63
6218;BME280;3142;48.206;11.550;2022-12-18T08:58:31;97090.81;;;-3.88;82.99
6218;BME280;3142;48.206;11.550;2022-12-18T09:00:59;97090.00;;;-3.89;82.44
6218;BME280;3142;48.206;11.550;2022-12-18T09:03:26;97083.06;;;-3.87;82.79
6218;BME280;3142;48.206;11.550;2022-12-18T09:05:54;97088.72;;;-3.80;82.46
6218;BME280;3142;48.206;11.550;2022-12-18T09:08:20;97100.44;;;-3.76;82.51
6218;BME280;3142;48.206;11.550;2022-12-18T09:10:49;97108.25;;;-3.79;82.89
6218;BME280;3142;48.206;11.550;2022-12-18T09:13:16;97095.31;;;-3.76;83.02
6218;BME280;3142;48.206;11.550;2022-12-18T09:15:44;97101.56;;;-3.64;83.37
6218;BME280;3142;48.206;11.550;2022-12-18T09:18:11;97092.16;;;-3.64;82.31
6218;BME280;3142;48.206;11.550;2022-12-18T09:20:38;97091.16;;;-3.61;82.58
6218;BME280;3142;48.206;11.550;2022-12-18T09:23:06;97095.97;;;-3.55;82.35
6218;BME280;3142;48.206;11.550;2022-12-18T09:25:33;97093.09;;;-3.49;82.81
6218;BME280;3142;48.206;11.550;2022-12-18T09:28:01;97087.72;;;-3.44;81.52
6218;BME280;3142;48.206;11.550;2022-12-18T09:30:27;97087.66;;;-3.43;81.18
6218;BME280;3142;48.206;11.550;2022-12-18T09:32:54;97086.25;;;-3.48;81.83
6218;BME280;3142;48.206;11.550;2022-12-18T09:35:20;97089.34;;;-3.59;81.55
6218;BME280;3142;48.206;11.550;2022-12-18T09:37:47;97085.75;;;-3.55;81.31
6218;BME280;3142;48.206;11.550;2022-12-18T09:40:16;97081.03;;;-3.47;81.62
6218;BME280;3142;48.206;11.550;2022-12-18T09:42:45;97080.16;;;-3.30;82.28
6218;BME280;3142;48.206;11.550;2022-12-18T09:45:15;97078.38;;;-3.28;80.86
6218;BME280;3142;48.206;11.550;2022-12-18T09:47:43;97083.31;;;-3.41;80.70
6218;BME280;3142;48.206;11.550;2022-12-18T09:50:22;97083.59;;;-3.47;81.07
6218;BME280;3142;48.206;11.550;2022-12-18T09:52:53;97082.13;;;-3.51;81.81
6218;BME280;3142;48.206;11.550;2022-12-18T09:55:25;97075.56;;;-3.57;81.35
6218;BME280;3142;48.206;11.550;2022-12-18T09:57:56;97073.91;;;-3.58;80.98
6218;BME280;3142;48.206;11.550;2022-12-18T10:00:25;97080.44;;;-3.68;80.97
6218;BME280;3142;48.206;11.550;2022-12-18T10:02:53;97073.72;;;-3.70;81.03
6218;BME280;3142;48.206;11.550;2022-12-18T10:05:30;97071.94;;;-3.68;81.27
6218;BME280;3142;48.206;11.550;2022-12-18T10:08:02;97066.97;;;-3.71;81.81
6218;BME280;3142;48.206;11.550;2022-12-18T10:10:38;97063.44;;;-3.86;81.45
6218;BME280;3142;48.206;11.550;2022-12-18T10:13:15;97053.94;;;-3.82;82.46
6218;BME280;3142;48.206;11.550;2022-12-18T10:15:54;97051.16;;;-3.62;82.54
6218;BME280;3142;48.206;11.550;2022-12-18T10:18:30;97057.19;;;-3.63;81.67
6218;BME280;3142;48.206;11.550;2022-12-18T10:21:03;97055.53;;;-3.64;81.38
6218;BME280;3142;48.206;11.550;2022-12-18T10:23:39;97060.41;;;-3.60;81.33
6218;BME280;3142;48.206;11.550;2022-12-18T10:26:10;97054.66;;;-3.47;81.99
6218;BME280;3142;48.206;11.550;2022-12-18T10:28:39;97047.63;;;-3.44;81.83
6218;BME280;3142;48.206;11.550;2022-12-18T10:31:06;97033.53;;;-3.51;80.57
6218;BME280;3142;48.206;11.550;2022-12-18T10:33:34;97028.59;;;-3.54;81.16
6218;BME280;3142;48.206;11.550;2022-12-18T10:36:00;97032.28;;;-3.44;80.97
6218;BME280;3142;48.206;11.550;2022-12-18T10:38:28;97034.19;;;-3.47;80.42
6218;BME280;3142;48.206;11.550;2022-12-18T10:40:57;97025.53;;;-3.45;80.89
6218;BME280;3142;48.206;11.550;2022-12-18T10:43:26;97037.00;;;-3.36;80.56
6218;BME280;3142;48.206;11.550;2022-12-18T10:46:07;97040.38;;;-3.51;80.87
6218;BME280;3142;48.206;11.550;2022-12-18T10:48:41;97040.34;;;-3.67;80.18
6218;BME280;3142;48.206;11.550;2022-12-18T10:51:08;97040.56;;;-3.72;80.79
6218;BME280;3142;48.206;11.550;2022-12-18T10:53:36;97038.84;;;-3.71;81.08
6218;BME280;3142;48.206;11.550;2022-12-18T10:56:04;97040.66;;;-3.73;81.28
6218;BME280;3142;48.206;11.550;2022-12-18T10:58:34;97040.66;;;-3.73;81.29
6218;BME280;3142;48.206;11.550;2022-12-18T11:01:05;97045.84;;;-3.75;81.25
6218;BME280;3142;48.206;11.550;2022-12-18T11:03:33;97032.25;;;-3.75;81.62
6218;BME280;3142;48.206;11.550;2022-12-18T11:06:03;97055.41;;;-3.78;81.34
6218;BME280;3142;48.206;11.550;2022-12-18T11:08:30;97063.97;;;-3.79;81.81
6218;BME280;3142;48.206;11.550;2022-12-18T11:10:57;97055.09;;;-3.72;81.36
6218;BME280;3142;48.206;11.550;2022-12-18T11:13:25;97058.13;;;-3.81;81.64
6218;BME280;3142;48.206;11.550;2022-12-18T11:15:54;97054.88;;;-3.85;82.20
6218;BME280;3142;48.206;11.550;2022-12-18T11:18:26;97064.47;;;-3.73;82.32
6218;BME280;3142;48.206;11.550;2022-12-18T11:20:54;97057.75;;;-3.58;81.43
6218;BME280;3142;48.206;11.550;2022-12-18T11:23:23;97057.75;;;-3.58;81.25
6218;BME280;3142;48.206;11.550;2022-12-18T11:25:52;97056.22;;;-3.45;81.49
6218;BME280;3142;48.206;11.550;2022-12-18T11:28:37;97059.41;;;-3.57;80.98
6218;BME280;3142;48.206;11.550;2022-12-18T11:31:21;97055.28;;;-3.60;81.55
6218;BME280;3142;48.206;11.550;2022-12-18T11:33:54;97053.25;;;-3.53;81.47
6218;BME280;3142;48.206;11.550;2022-12-18T11:36:23;97048.06;;;-3.51;79.98
6218;BME280;3142;48.206;11.550;2022-12-18T11:38:51;97045.88;;;-3.59;80.12
6218;BME280;3142;48.206;11.550;2022-12-18T11:41:24;97034.75;;;-3.58;81.05
6218;BME280;3142;48.206;11.550;2022-12-18T11:44:15;97026.69;;;-3.35;81.83
6218;BME280;3142;48.206;11.550;2022-12-18T11:46:50;97034.88;;;-3.12;80.66
6218;BME280;3142;48.206;11.550;2022-12-18T11:49:21;97034.53;;;-3.06;80.42
6218;BME280;3142;48.206;11.550;2022-12-18T11:51:51;97024.97;;;-3.03;80.68
6218;BME280;3142;48.206;11.550;2022-12-18T11:54:21;97025.56;;;-2.97;80.22
6218;BME280;3142;48.206;11.550;2022-12-18T11:56:51;97028.09;;;-2.82;79.73
6218;BME280;3142;48.206;11.550;2022-12-18T11:59:26;97019.66;;;-2.84;79.52
6218;BME280;3142;48.206;11.550;2022-12-18T12:02:03;97024.91;;;-3.01;80.18
6218;BME280;3142;48.206;11.550;2022-12-18T12:04:48;97017.59;;;-2.93;79.52
6218;BME280;3142;48.206;11.550;2022-12-18T12:07:26;97011.66;;;-2.93;78.90
6218;BME280;3142;48.206;11.550;2022-12-18T12:10:04;97012.09;;;-2.85;80.47
6218;BME280;3142;48.206;11.550;2022-12-18T12:12:39;97021.38;;;-2.69;79.34
6218;BME280;3142;48.206;11.550;2022-12-18T12:15:23;97021.47;;;-2.70;79.27
6218;BME280;3142;48.206;11.550;2022-12-18T12:17:57;97021.28;;;-2.67;79.01
6218;BME280;3142;48.206;11.550;2022-12-18T12:20:35;97018.03;;;-2.85;78.98
6218;BME280;3142;48.206;11.550;2022-12-18T12:23:12;97013.66;;;-2.99;78.69
6218;BME280;3142;48.206;11.550;2022-12-18T12:25:46;97000.44;;;-3.07;77.94
6218;BME280;3142;48.206;11.550;2022-12-18T12:28:32;97007.88;;;-3.18;78.60
6218;BME280;3142;48.206;11.550;2022-12-18T12:31:10;97005.50;;;-3.21;79.05
6218;BME280;3142;48.206;11.550;2022-12-18T12:33:47;96999.72;;;-3.09;78.83
6218;BME280;3142;48.206;11.550;2022-12-18T12:36:22;96995.25;;;-3.05;79.01
6218;BME280;3142;48.206;11.550;2022-12-18T12:38:55;96997.03;;;-2.91;79.60
6218;BME280;3142;48.206;11.550;2022-12-18T12:41:25;96989.78;;;-2.83;79.44
6218;BME280;3142;48.206;11.550;2022-12-18T12:44:16;97000.16;;;-2.71;79.32
6218;BME280;3142;48.206;11.550;2022-12-18T12:46:44;96997.69;;;-2.72;78.83
6218;BME280;3142;48.206;11.550;2022-12-18T12:49:15;97001.72;;;-2.68;78.61
6218;BME280;3142;48.206;11.550;2022-12-18T12:51:44;96993.22;;;-2.69;78.55
6218;BME280;3142;48.206;11.550;2022-12-18T12:54:16;96995.31;;;-2.61;77.82
6218;BME280;3142;48.206;11.550;2022-12-18T12:56:48;96995.28;;;-2.75;78.00
6218;BME280;3142;48.206;11.550;2022-12-18T12:59:22;97005.59;;;-2.77;78.55
6218;BME280;3142;48.206;11.550;2022-12-18T13:01:58;97010.09;;;-2.96;78.17
6218;BME280;3142;48.206;11.550;2022-12-18T13:04:34;97019.94;;;-3.04;78.84
6218;BME280;3142;48.206;11.550;2022-12-18T13:07:08;96991.78;;;-3.04;78.59
6218;BME280;3142;48.206;11.550;2022-12-18T13:12:53;97013.72;;;-3.16;79.28
6218;BME280;3142;48.206;11.550;2022-12-18T13:15:23;97014.81;;;-3.20;78.51
6218;BME280;3142;48.206;11.550;2022-12-18T13:18:03;97011.34;;;-3.19;79.24
6218;BME280;3142;48.206;11.550;2022-12-18T13:20:33;97021.34;;;-3.14;79.81
6218;BME280;3142;48.206;11.550;2022-12-18T13:23:01;97024.66;;;-3.12;78.95
6218;BME280;3142;48.206;11.550;2022-12-18T13:25:30;97012.44;;;-3.23;78.58